createdAt,value
2023-02-21T00:02:22.595Z,8.90
2023-02-21T00:05:08.408Z,8.87
2023-02-21T00:07:54.505Z,9.12
2023-02-21T00:10:44.659Z,9.11
2023-02-21T00:13:41.402Z,9.45
2023-02-21T00:16:27.232Z,9.29
2023-02-21T00:19:13.091Z,9.26
2023-02-21T00:22:02.644Z,9.18
2023-02-21T00:24:48.367Z,9.24
2023-02-21T00:27:48.713Z,9.48
2023-02-21T00:30:44.261Z,9.48
2023-02-21T00:33:32.830Z,9.34
2023-02-21T00:36:21.333Z,9.49
2023-02-21T00:39:12.877Z,9.50
2023-02-21T00:41:58.605Z,9.27
2023-02-21T00:44:48.173Z,9.26
2023-02-21T00:47:33.957Z,9.37
2023-02-21T00:50:20.320Z,9.52
2023-02-21T00:53:10.804Z,9.39
2023-02-21T00:55:58.911Z,8.88
2023-02-21T00:58:45.709Z,9.52
2023-02-21T01:01:31.248Z,9.17
2023-02-21T01:04:18.800Z,8.67
2023-02-21T01:07:06.713Z,9.40
2023-02-21T01:09:57.264Z,9.07
2023-02-21T01:12:42.673Z,9.12
2023-02-21T01:15:35.757Z,9.37
2023-02-21T01:18:21.144Z,9.20
2023-02-21T01:21:16.934Z,9.34
2023-02-21T01:24:02.429Z,9.49
2023-02-21T01:26:47.852Z,8.96
2023-02-21T01:29:33.258Z,9.10
2023-02-21T01:32:21.859Z,9.07
2023-02-21T01:35:08.665Z,9.24
2023-02-21T01:37:59.376Z,8.47
2023-02-21T01:40:57.214Z,9.27
2023-02-21T01:43:44.782Z,6.95
2023-02-21T01:46:35.486Z,9.16
2023-02-21T01:49:30.767Z,9.39
2023-02-21T01:52:16.937Z,9.53
2023-02-21T01:55:04.919Z,9.14
2023-02-21T01:57:50.410Z,9.27
2023-02-21T02:03:39.818Z,8.70
2023-02-21T02:06:31.334Z,9.47
2023-02-21T02:09:16.801Z,8.69
2023-02-21T02:12:09.739Z,9.54
2023-02-21T02:14:54.843Z,9.55
2023-02-21T02:17:45.922Z,9.34
2023-02-21T02:20:27.890Z,9.55
2023-02-21T02:23:07.816Z,9.14
2023-02-21T02:25:53.174Z,9.57
2023-02-21T02:28:42.812Z,9.48
2023-02-21T02:31:20.076Z,9.56
2023-02-21T02:34:08.750Z,9.59
2023-02-21T02:36:44.408Z,9.58
2023-02-21T02:39:48.629Z,9.57
2023-02-21T02:42:22.537Z,9.56
2023-02-21T02:45:01.467Z,9.54
2023-02-21T02:47:31.804Z,9.30
2023-02-21T02:49:58.976Z,9.56
2023-02-21T02:52:25.937Z,9.24
2023-02-21T02:54:58.809Z,9.45
2023-02-21T02:57:25.828Z,8.95
2023-02-21T02:59:52.733Z,9.46
2023-02-21T03:02:58.278Z,9.59
2023-02-21T03:05:49.598Z,9.57
2023-02-21T03:08:45.988Z,9.50
2023-02-21T03:11:23.739Z,9.56
2023-02-21T03:14:05.734Z,9.56
2023-02-21T03:17:00.538Z,9.37
2023-02-21T03:19:29.689Z,9.18
2023-02-21T03:21:59.240Z,9.57
2023-02-21T03:24:26.858Z,6.88
2023-02-21T03:26:56.920Z,9.49
2023-02-21T03:29:24.179Z,9.58
2023-02-21T03:32:12.046Z,9.60
2023-02-21T03:34:39.566Z,9.29
2023-02-21T03:37:07.721Z,9.60
2023-02-21T03:39:34.610Z,9.32
2023-02-21T03:42:01.638Z,9.31
2023-02-21T03:44:28.524Z,9.38
2023-02-21T03:46:55.443Z,8.91
2023-02-21T03:49:22.421Z,9.61
2023-02-21T03:51:49.360Z,9.62
2023-02-21T03:54:16.306Z,9.23
2023-02-21T03:56:43.429Z,9.40
2023-02-21T03:59:10.453Z,8.99
2023-02-21T04:01:37.894Z,9.49
2023-02-21T04:04:04.797Z,9.63
2023-02-21T04:06:31.704Z,9.43
2023-02-21T04:08:58.680Z,9.65
2023-02-21T04:11:25.597Z,9.65
2023-02-21T04:13:52.709Z,9.48
2023-02-21T04:16:19.641Z,8.90
2023-02-21T04:18:46.639Z,9.58
2023-02-21T04:21:18.273Z,9.55
2023-02-21T04:23:45.238Z,9.33
2023-02-21T04:26:12.190Z,9.64
2023-02-21T04:28:39.110Z,9.16
2023-02-21T04:31:06.038Z,9.65
2023-02-21T04:33:32.975Z,9.66
2023-02-21T04:35:59.954Z,9.66
2023-02-21T04:38:26.868Z,9.59
2023-02-21T04:40:53.777Z,9.66
2023-02-21T04:43:21.804Z,9.23
2023-02-21T06:04:20.687Z,9.19
2023-02-21T06:06:48.041Z,9.21
2023-02-21T06:09:15.016Z,9.15
2023-02-21T06:11:41.988Z,9.54
2023-02-21T06:14:15.485Z,9.40
2023-02-21T06:16:42.468Z,9.18
2023-02-21T06:19:10.000Z,9.38
2023-02-21T06:21:36.972Z,8.01
2023-02-21T06:24:04.186Z,9.35
2023-02-21T06:26:31.081Z,9.40
2023-02-21T06:28:58.391Z,9.37
2023-02-21T06:31:25.464Z,9.28
2023-02-21T06:33:52.466Z,8.92
2023-02-21T06:36:22.799Z,9.18
2023-02-21T06:38:51.449Z,8.89
2023-02-21T06:41:20.100Z,9.20
2023-02-21T06:43:46.998Z,9.55
2023-02-21T06:46:18.628Z,9.54
2023-02-21T06:48:45.572Z,9.23
2023-02-21T06:51:14.847Z,9.12
2023-02-21T06:53:42.718Z,9.12
2023-02-21T06:56:09.696Z,9.50
2023-02-21T06:58:36.885Z,9.07
2023-02-21T07:01:03.796Z,9.47
2023-02-21T07:03:30.698Z,9.13
2023-02-21T07:05:57.989Z,9.44
2023-02-21T07:08:26.570Z,8.97
2023-02-21T07:10:53.556Z,9.41
2023-02-21T07:13:22.500Z,9.01
2023-02-21T07:15:49.594Z,9.15
2023-02-21T07:18:16.678Z,9.16
2023-02-21T07:20:43.796Z,9.43
2023-02-21T07:23:10.773Z,8.37
2023-02-21T07:25:38.014Z,9.45
2023-02-21T07:28:05.132Z,8.99
2023-02-21T07:30:32.225Z,9.35
2023-02-21T07:32:59.544Z,9.47
2023-02-21T07:35:26.867Z,9.01
2023-02-21T07:37:53.930Z,9.48
2023-02-21T07:40:20.846Z,9.16
2023-02-21T07:42:48.229Z,9.01
2023-02-21T07:45:15.912Z,9.42
2023-02-21T07:47:45.344Z,8.92
2023-02-21T07:50:13.361Z,8.35
2023-02-21T07:52:40.286Z,8.55
2023-02-21T07:55:07.373Z,8.47
2023-02-21T07:57:34.356Z,8.87
2023-02-21T08:00:01.259Z,9.29
2023-02-21T08:02:28.304Z,9.46
2023-02-21T08:04:55.297Z,9.47
2023-02-21T08:07:22.226Z,8.82
2023-02-21T08:09:49.170Z,9.42
2023-02-21T08:12:17.232Z,9.51
2023-02-21T08:14:44.130Z,9.38
2023-02-21T08:17:11.098Z,9.11
2023-02-21T08:19:38.040Z,9.52
2023-02-21T08:22:04.963Z,8.77
2023-02-21T08:24:31.851Z,9.35
2023-02-21T08:26:58.826Z,9.26
2023-02-21T08:29:25.731Z,9.31
2023-02-21T08:31:52.872Z,8.82
2023-02-21T08:34:19.844Z,9.41
2023-02-21T08:36:46.799Z,9.26
2023-02-21T08:39:15.129Z,9.16
2023-02-21T08:41:44.195Z,9.49
2023-02-21T08:44:12.699Z,9.22
2023-02-21T08:46:40.883Z,9.27
2023-02-21T08:49:08.419Z,9.37
2023-02-21T08:51:35.822Z,9.27
2023-02-21T08:54:03.702Z,9.42
2023-02-21T08:56:30.865Z,9.53
2023-02-21T08:58:58.063Z,9.01
2023-02-21T09:01:30.084Z,9.42
2023-02-21T09:03:57.035Z,9.53
2023-02-21T09:06:23.928Z,9.13
2023-02-21T09:08:50.923Z,9.64
2023-02-21T09:11:18.038Z,9.65
2023-02-21T09:13:44.944Z,9.37
2023-02-21T09:16:11.864Z,9.66
2023-02-21T09:18:38.796Z,9.46
2023-02-21T09:21:07.125Z,9.29
2023-02-21T09:23:34.033Z,9.65
2023-02-21T09:26:00.998Z,9.70
2023-02-21T09:28:29.474Z,9.36
2023-02-21T09:30:58.401Z,9.51
2023-02-21T09:33:25.449Z,9.55
2023-02-21T09:35:54.219Z,9.19
2023-02-21T09:38:21.222Z,9.60
2023-02-21T09:40:57.515Z,9.80
2023-02-21T09:43:33.347Z,9.29
2023-02-21T09:46:03.015Z,7.89
2023-02-21T09:48:29.997Z,9.14
2023-02-21T09:50:58.799Z,9.83
2023-02-21T09:53:35.631Z,9.31
2023-02-21T09:56:05.869Z,9.89
2023-02-21T09:58:32.781Z,9.57
2023-02-21T10:01:04.102Z,9.90
2023-02-21T10:03:45.376Z,9.89
2023-02-21T10:06:28.207Z,9.77
2023-02-21T10:09:07.326Z,9.55
2023-02-21T10:11:40.081Z,9.93
2023-02-21T10:14:34.626Z,9.94
2023-02-21T10:17:23.064Z,9.94
2023-02-21T10:19:53.261Z,9.86
2023-02-21T10:22:25.871Z,9.88
2023-02-21T10:24:52.922Z,9.68
2023-02-21T10:27:25.309Z,10.00
2023-02-21T10:30:10.879Z,9.53
2023-02-21T10:32:37.961Z,10.04
2023-02-21T10:35:05.179Z,9.54
2023-02-21T10:37:42.120Z,10.06
2023-02-21T10:40:17.992Z,10.07
2023-02-21T10:42:49.589Z,9.81
2023-02-21T10:45:17.939Z,9.90
2023-02-21T10:48:00.436Z,9.86
2023-02-21T10:50:51.542Z,10.15
2023-02-21T10:53:33.714Z,9.93
2023-02-21T10:56:16.296Z,10.14
2023-02-21T10:59:05.584Z,9.55
2023-02-21T11:01:45.208Z,10.05
2023-02-21T11:04:21.353Z,10.25
2023-02-21T11:07:10.140Z,10.09
2023-02-21T11:09:47.851Z,10.32
2023-02-21T11:12:23.535Z,10.16
2023-02-21T11:14:53.461Z,10.38
2023-02-21T11:17:23.243Z,10.21
2023-02-21T11:19:54.023Z,10.11
2023-02-21T11:22:35.951Z,10.39
2023-02-21T11:25:11.971Z,10.39
2023-02-21T11:27:39.755Z,10.41
2023-02-21T11:30:22.215Z,10.02
2023-02-21T11:32:52.467Z,10.42
2023-02-21T11:35:19.302Z,10.42
2023-02-21T11:38:02.794Z,10.18
2023-02-21T11:40:47.917Z,10.43
2023-02-21T11:43:33.010Z,10.25
2023-02-21T11:46:14.456Z,10.47
2023-02-21T11:48:54.506Z,10.46
2023-02-21T11:51:51.494Z,10.45
2023-02-21T11:54:26.771Z,10.07
2023-02-21T11:56:59.950Z,10.43
2023-02-21T11:59:56.873Z,10.05
2023-02-21T12:02:58.349Z,10.43
2023-02-21T12:05:50.125Z,10.12
2023-02-21T12:08:42.290Z,10.44
2023-02-21T12:11:18.689Z,10.41
2023-02-21T12:14:27.071Z,10.26
2023-02-21T12:17:08.699Z,10.51
2023-02-21T12:20:00.450Z,10.42
2023-02-21T12:22:42.933Z,10.49
2023-02-21T12:25:21.053Z,10.51
2023-02-21T12:27:55.322Z,10.51
2023-02-21T12:30:49.919Z,10.42
2023-02-21T12:33:47.437Z,10.51
2023-02-21T12:36:36.180Z,10.22
2023-02-21T12:39:06.658Z,10.54
2023-02-21T12:42:01.585Z,10.55
2023-02-21T12:45:05.414Z,10.56
2023-02-21T12:47:49.574Z,10.17
2023-02-21T12:50:21.026Z,9.66
2023-02-21T12:52:50.808Z,10.56
2023-02-21T12:55:27.646Z,10.54
2023-02-21T12:57:56.642Z,9.78
2023-02-21T13:00:26.605Z,10.32
2023-02-21T13:03:17.820Z,10.46
2023-02-21T13:05:46.795Z,10.41
2023-02-21T13:08:20.973Z,10.53
2023-02-21T13:11:03.091Z,10.51
2023-02-21T13:13:34.722Z,9.61
2023-02-21T13:16:03.538Z,10.48
2023-02-21T13:18:33.274Z,9.53
2023-02-21T13:21:09.287Z,10.46
2023-02-21T13:24:13.635Z,10.47
2023-02-21T13:26:50.995Z,10.46
2023-02-21T13:29:39.095Z,10.34
2023-02-21T13:32:17.406Z,10.07
2023-02-21T13:34:56.541Z,10.10
2023-02-21T13:37:28.482Z,10.31
2023-02-21T13:40:22.262Z,10.06
2023-02-21T13:42:49.248Z,10.44
2023-02-21T13:45:23.097Z,10.33
2023-02-21T13:47:53.003Z,10.46
2023-02-21T13:50:38.259Z,10.46
2023-02-21T13:53:17.808Z,10.46
2023-02-21T13:55:59.827Z,10.46
2023-02-21T13:58:52.349Z,10.22
2023-02-21T14:01:30.208Z,10.47
2023-02-21T14:04:00.197Z,10.06
2023-02-21T14:06:34.511Z,10.47
2023-02-21T14:09:11.161Z,10.45
2023-02-21T14:11:41.083Z,10.06
2023-02-21T14:14:22.093Z,10.41
2023-02-21T14:16:53.234Z,10.38
2023-02-21T14:19:41.407Z,10.38
2023-02-21T14:22:25.532Z,10.17
2023-02-21T14:24:55.633Z,10.35
2023-02-21T14:27:22.543Z,10.35
2023-02-21T14:30:01.263Z,10.32
2023-02-21T14:32:47.985Z,10.32
2023-02-21T14:35:31.641Z,10.31
2023-02-21T14:38:03.952Z,10.12
2023-02-21T14:40:34.106Z,10.33
2023-02-21T14:43:20.947Z,10.33
2023-02-21T14:46:03.357Z,9.59
2023-02-21T14:48:51.666Z,10.34
2023-02-21T14:51:40.285Z,10.35
2023-02-21T14:54:37.761Z,10.33
2023-02-21T14:57:23.380Z,10.33
2023-02-21T15:00:24.359Z,10.33
2023-02-21T15:03:12.769Z,9.70
2023-02-21T15:05:47.982Z,9.95
2023-02-21T15:08:20.551Z,9.89
2023-02-21T15:10:49.010Z,10.34
2023-02-21T15:13:28.292Z,10.01
2023-02-21T15:16:03.865Z,10.06
2023-02-21T15:18:33.536Z,10.31
2023-02-21T15:21:15.672Z,9.88
2023-02-21T15:23:47.669Z,10.08
2023-02-21T15:26:31.422Z,10.00
2023-02-21T15:29:18.555Z,10.15
2023-02-21T15:31:49.135Z,10.10
2023-02-21T15:34:27.784Z,9.61
2023-02-21T15:37:21.625Z,10.21
2023-02-21T15:40:00.150Z,9.87
2023-02-21T15:42:27.989Z,9.67
2023-02-21T15:45:00.246Z,10.20
2023-02-21T15:47:27.848Z,9.57
2023-02-21T15:50:08.249Z,10.01
2023-02-21T15:52:51.492Z,9.81
2023-02-21T15:55:18.347Z,10.20
2023-02-21T15:57:58.740Z,10.21
2023-02-21T16:00:30.062Z,9.73
2023-02-21T16:03:32.709Z,10.21
2023-02-21T16:06:19.912Z,10.21
2023-02-21T16:09:02.137Z,10.09
2023-02-21T16:11:55.353Z,10.19
2023-02-21T16:14:45.152Z,10.21
2023-02-21T16:17:24.615Z,9.72
2023-02-21T16:19:54.179Z,10.20
2023-02-21T16:22:54.133Z,9.95
2023-02-21T16:25:25.034Z,9.87
2023-02-21T16:27:56.594Z,9.67
2023-02-21T16:30:26.068Z,9.61
2023-02-21T16:32:54.976Z,9.99
2023-02-21T16:35:23.555Z,10.03
2023-02-21T16:37:55.625Z,9.87
2023-02-21T16:40:28.661Z,9.89
2023-02-21T16:42:56.506Z,9.70
2023-02-21T16:45:24.313Z,9.73
2023-02-21T16:48:05.616Z,9.90
2023-02-21T16:50:39.036Z,10.00
2023-02-21T16:53:07.077Z,9.55
2023-02-21T16:55:34.075Z,10.00
2023-02-21T16:58:06.719Z,10.00
2023-02-21T17:00:33.805Z,9.69
2023-02-21T17:03:00.869Z,9.87
2023-02-21T17:05:30.294Z,9.96
2023-02-21T17:07:58.662Z,9.65
2023-02-21T17:10:25.694Z,9.66
2023-02-21T17:12:52.741Z,9.98
2023-02-21T17:15:23.930Z,9.64
2023-02-21T17:17:53.738Z,9.52
2023-02-21T17:20:22.276Z,10.00
2023-02-21T17:22:49.522Z,9.79
2023-02-21T17:25:16.999Z,9.77
2023-02-21T17:27:43.976Z,9.30
2023-02-21T17:30:11.488Z,9.64
2023-02-21T17:32:38.557Z,9.98
2023-02-21T17:35:05.705Z,9.60
2023-02-21T17:37:32.641Z,9.96
2023-02-21T17:39:59.584Z,9.71
2023-02-21T17:42:26.743Z,9.96
2023-02-21T17:44:53.764Z,9.96
2023-02-21T17:47:22.920Z,9.67
2023-02-21T17:49:50.364Z,9.67
2023-02-21T17:52:18.220Z,9.98
2023-02-21T17:54:45.288Z,9.76
2023-02-21T17:57:12.509Z,9.78
2023-02-21T17:59:39.721Z,9.55
2023-02-21T18:02:08.231Z,9.91
2023-02-21T18:04:35.466Z,9.89
2023-02-21T18:07:02.529Z,9.78
2023-02-21T18:09:30.523Z,9.90
2023-02-21T18:11:59.520Z,9.85
2023-02-21T18:14:30.418Z,9.97
2023-02-21T18:17:00.130Z,9.52
2023-02-21T18:19:27.403Z,9.44
2023-02-21T18:21:54.371Z,9.53
2023-02-21T18:24:24.230Z,9.66
2023-02-21T18:26:51.153Z,9.64
2023-02-21T18:29:18.137Z,10.02
2023-02-21T18:31:45.103Z,9.86
2023-02-21T18:34:12.144Z,9.55
2023-02-21T18:36:41.012Z,9.82
2023-02-21T18:39:08.068Z,10.03
2023-02-21T18:41:35.620Z,9.48
2023-02-21T18:44:02.548Z,9.85
2023-02-21T18:46:30.461Z,9.97
2023-02-21T18:48:57.864Z,9.94
2023-02-21T18:51:24.996Z,9.80
2023-02-21T18:53:52.008Z,9.47
2023-02-21T18:56:20.124Z,9.81
2023-02-21T18:58:48.244Z,9.72
2023-02-21T19:01:16.360Z,9.55
2023-02-21T19:03:43.609Z,9.62
2023-02-21T19:06:15.050Z,9.55
2023-02-21T19:08:41.972Z,9.82
2023-02-21T19:11:08.900Z,9.78
2023-02-21T19:13:35.873Z,9.31
2023-02-21T19:16:02.977Z,9.37
2023-02-21T19:18:30.655Z,9.53
2023-02-21T19:20:58.008Z,9.51
2023-02-21T19:23:27.522Z,9.63
2023-02-21T19:25:55.437Z,9.36
2023-02-21T19:28:24.125Z,9.18
2023-02-21T19:30:51.150Z,9.30
2023-02-21T19:33:18.241Z,9.14
2023-02-21T19:35:46.023Z,9.46
2023-02-21T19:38:12.976Z,9.32
2023-02-21T19:40:40.769Z,9.29
2023-02-21T19:43:08.016Z,9.16
2023-02-21T19:45:35.312Z,9.19
2023-02-21T19:48:02.571Z,9.38
2023-02-21T19:50:30.979Z,9.07
2023-02-21T19:52:59.545Z,8.96
2023-02-21T19:55:27.934Z,8.78
2023-02-21T19:57:54.921Z,8.72
2023-02-21T20:00:22.391Z,9.27
2023-02-21T20:02:49.394Z,8.84
2023-02-21T20:05:17.747Z,8.91
2023-02-21T20:07:45.653Z,8.87
2023-02-21T20:10:13.067Z,8.79
2023-02-21T20:12:39.994Z,9.06
2023-02-21T20:15:07.595Z,8.78
2023-02-21T20:17:38.001Z,9.17
2023-02-21T20:20:07.450Z,9.15
2023-02-21T20:22:34.347Z,9.18
2023-02-21T20:25:02.027Z,8.96
2023-02-21T20:27:29.393Z,9.30
2023-02-21T20:29:56.680Z,9.17
2023-02-21T20:32:23.943Z,8.96
2023-02-21T20:34:54.315Z,9.21
2023-02-21T20:37:21.665Z,9.13
2023-02-21T20:39:49.708Z,9.16
2023-02-21T20:42:17.029Z,8.90
2023-02-21T20:44:44.507Z,9.15
2023-02-21T20:47:11.526Z,9.11
2023-02-21T20:49:38.976Z,8.75
2023-02-21T20:52:06.130Z,9.00
2023-02-21T20:54:33.077Z,9.14
2023-02-21T20:57:00.063Z,9.06
2023-02-21T20:59:29.191Z,9.11
2023-02-21T21:01:58.064Z,8.84
2023-02-21T21:04:43.448Z,9.27
2023-02-21T21:07:14.262Z,9.08
2023-02-21T21:09:41.636Z,8.70
2023-02-21T21:12:10.767Z,9.08
2023-02-21T21:14:41.667Z,9.01
2023-02-21T21:17:12.882Z,9.14
2023-02-21T21:19:40.810Z,9.10
2023-02-21T21:22:09.821Z,8.51
2023-02-21T21:24:37.741Z,8.89
2023-02-21T21:27:08.698Z,9.19
2023-02-21T21:29:42.362Z,9.07
2023-02-21T21:32:15.011Z,8.87
2023-02-21T21:34:46.829Z,9.11
2023-02-21T21:37:14.603Z,8.79
2023-02-21T21:39:45.812Z,8.78
2023-02-21T21:42:16.886Z,9.04
2023-02-21T21:44:53.687Z,9.04
2023-02-21T21:47:22.128Z,8.95
2023-02-21T21:49:50.107Z,8.78
2023-02-21T21:52:19.039Z,8.85
2023-02-21T21:54:47.041Z,8.94
2023-02-21T21:57:16.654Z,8.68
2023-02-21T21:59:43.851Z,8.97
2023-02-21T22:02:11.443Z,8.93
2023-02-21T22:04:39.714Z,8.88
2023-02-21T22:07:09.949Z,8.93
2023-02-21T22:09:36.896Z,9.02
2023-02-21T22:12:05.107Z,8.80
2023-02-21T22:14:32.094Z,8.81
2023-02-21T22:16:58.980Z,8.52
2023-02-21T22:19:27.072Z,8.96
2023-02-21T22:21:55.232Z,9.12
2023-02-21T22:24:23.574Z,9.11
2023-02-21T22:26:54.923Z,8.61
2023-02-21T22:29:22.659Z,8.71
2023-02-21T22:31:51.987Z,8.69
2023-02-21T22:34:25.313Z,9.08
2023-02-21T22:36:57.776Z,8.78
2023-02-21T22:39:25.548Z,8.94
2023-02-21T22:41:52.966Z,8.76
2023-02-21T22:44:19.986Z,8.78
2023-02-21T22:46:49.040Z,8.82
2023-02-21T22:49:18.752Z,8.65
2023-02-21T22:51:45.702Z,8.76
2023-02-21T22:54:16.586Z,8.62
2023-02-21T22:56:54.909Z,8.91
2023-02-21T22:59:26.740Z,8.82
2023-02-21T23:01:54.302Z,8.39
2023-02-21T23:04:36.776Z,8.86
2023-02-21T23:07:04.955Z,8.83
2023-02-21T23:09:36.959Z,8.61
2023-02-21T23:12:06.002Z,8.78
2023-02-21T23:14:35.126Z,8.55
2023-02-21T23:17:02.472Z,8.74
2023-02-21T23:19:30.362Z,8.94
2023-02-21T23:22:00.260Z,8.85
2023-02-21T23:24:28.272Z,8.82
2023-02-21T23:26:55.273Z,8.63
2023-02-21T23:29:24.266Z,9.02
2023-02-21T23:31:52.164Z,8.81
2023-02-21T23:34:19.940Z,8.96
2023-02-21T23:36:46.919Z,9.10
2023-02-21T23:39:15.277Z,8.85
2023-02-21T23:41:43.188Z,8.75
2023-02-21T23:44:12.252Z,9.07
2023-02-21T23:46:40.694Z,8.81
2023-02-21T23:49:10.920Z,9.01
2023-02-21T23:51:38.417Z,9.01
2023-02-21T23:54:07.290Z,8.33
2023-02-21T23:56:35.716Z,8.66
2023-02-21T23:59:06.188Z,8.85
